Time;durP1;ratioP1;P1;durP2;ratioP2;P2;SDS_P1;SDS_P2;PMS_P1;PMS_P2;Temp;Humidity;BMP_temperature;BMP_pressure;BME280_temperature;BME280_humidity;BME280_pressure;Samples;Min_cycle;Max_cycle;Signal;HPM_P1;HPM_P2
2023/01/27 00:00:40;;;;;;;;;;;;;;;;;;5094773;28;20352;-75
2023/01/27 00:03:07;;;;;;;;;;;;;;;;;;5094765;28;20383;-75
2023/01/27 00:05:33;;;;;;;;;;;;;;;;;;5094390;28;19919;-75
2023/01/27 00:07:59;;;;;;;;;;;;;;;;;;5094283;28;19916;-75
2023/01/27 00:10:25;;;;;;;;;;;;;;;;;;5094610;28;19962;-75
2023/01/27 00:15:36;;;;;;;;;;;;;;;;;;5093805;28;19931;-75
2023/01/27 00:18:01;;;;;;;;;;;;;;;;;;5094059;28;20392;-75
2023/01/27 00:25:59;;;;;;;;;;;;;;;;;;5094208;28;19915;-75
2023/01/27 00:28:25;;;;;;;;;;;;;;;;;;5093564;28;19924;-75
2023/01/27 00:30:51;;;;;;;;;;;;;;;;;;5094021;28;19915;-75
2023/01/27 00:33:29;;;;;;;;;;;;;;;;;;5093926;28;19908;-75
2023/01/27 00:35:55;;;;;;;;;;;;;;;;;;5093600;28;20003;-76
2023/01/27 00:38:21;;;;;;;;;;;;;;;;;;5094136;28;19955;-75
2023/01/27 00:41:14;;;;;;;;;;;;;;;;;;5093864;28;19961;-75
2023/01/27 00:43:33;;;;;;;;;;;;;;;;;;5095978;28;19920;-75
2023/01/27 00:45:59;;;;;;;;;;;;;;;;;;5098066;28;19908;-76
2023/01/27 00:48:25;;;;;;;;;;;;;;;;;;5098113;28;19923;-75
2023/01/27 00:50:51;;;;;;;;;;;;;;;;;;5097716;28;20352;-75
2023/01/27 00:53:17;;;;;;;;;;;;;;;;;;5098168;28;20280;-75
2023/01/27 00:55:43;;;;;;;;;;;;;;;;;;5098004;28;20303;-75
2023/01/27 00:58:08;;;;;;;;;;;;;;;;;;5097338;28;20012;-75
2023/01/27 01:00:34;;;;;;;;;;;;;;;;;;5097829;28;19908;-75
2023/01/27 01:03:00;;;;;;;;;;;;;;;;;;5098121;28;19946;-75
2023/01/27 01:05:26;;;;;;;;;;;;;;;;;;5096125;28;19908;-74
2023/01/27 01:07:52;;;;;;;;;;;;;;;;;;5098345;28;19927;-75
2023/01/27 01:10:18;;;;;;;;;;;;;;;;;;5097741;28;19908;-75
2023/01/27 01:12:44;;;;;;;;;;;;;;;;;;5097665;28;19950;-76
2023/01/27 01:15:10;;;;;;;;;;;;;;;;;;5097510;28;19908;-76
2023/01/27 01:17:36;;;;;;;;;;;;;;;;;;5097756;28;19915;-76
2023/01/27 01:20:02;;;;;;;;;;;;;;;;;;5097806;28;19919;-74
2023/01/27 01:22:28;;;;;;;;;;;;;;;;;;5097766;28;19912;-75
2023/01/27 01:24:54;;;;;;;;;;;;;;;;;;5096992;28;19915;-75
2023/01/27 01:27:20;;;;;;;;;;;;;;;;;;5095978;28;19946;-76
2023/01/27 01:29:46;;;;;;;;;;;;;;;;;;5097468;28;20018;-76
2023/01/27 01:32:12;;;;;;;;;;;;;;;;;;5097557;28;19931;-76
2023/01/27 01:34:37;;;;;;;;;;;;;;;;;;5097242;28;19998;-76
2023/01/27 01:37:03;;;;;;;;;;;;;;;;;;5096260;28;19915;-77
2023/01/27 01:39:29;;;;;;;;;;;;;;;;;;5095471;28;19908;-76
2023/01/27 01:41:55;;;;;;;;;;;;;;;;;;5097038;28;20276;-76
2023/01/27 01:44:21;;;;;;;;;;;;;;;;;;5096904;28;20280;-76
2023/01/27 01:46:47;;;;;;;;;;;;;;;;;;5096735;28;19916;-76
2023/01/27 01:49:13;;;;;;;;;;;;;;;;;;5097330;28;20326;-76
2023/01/27 01:51:39;;;;;;;;;;;;;;;;;;5097846;28;19908;-75
2023/01/27 01:54:05;;;;;;;;;;;;;;;;;;5096391;28;19908;-77
2023/01/27 01:56:31;;;;;;;;;;;;;;;;;;5097309;28;19953;-76
2023/01/27 01:58:57;;;;;;;;;;;;;;;;;;5096999;28;19912;-76
2023/01/27 02:01:23;;;;;;;;;;;;;;;;;;5096295;28;19915;-75
2023/01/27 02:03:49;;;;;;;;;;;;;;;;;;5095229;28;19916;-75
2023/01/27 02:06:15;;;;;;;;;;;;;;;;;;5096400;28;19908;-75
2023/01/27 02:08:41;;;;;;;;;;;;;;;;;;5096112;28;19960;-75
2023/01/27 02:11:06;;;;;;;;;;;;;;;;;;5096429;28;19908;-76
2023/01/27 02:13:32;;;;;;;;;;;;;;;;;;5097576;28;19908;-76
2023/01/27 02:15:58;;;;;;;;;;;;;;;;;;5096415;28;20072;-76
2023/01/27 02:18:24;;;;;;;;;;;;;;;;;;5096292;28;19908;-76
2023/01/27 02:20:50;;;;;;;;;;;;;;;;;;5094771;28;19912;-76
2023/01/27 02:23:16;;;;;;;;;;;;;;;;;;5095187;28;19916;-76
2023/01/27 02:25:42;;;;;;;;;;;;;;;;;;5094962;28;19912;-75
2023/01/27 02:28:08;;;;;;;;;;;;;;;;;;5095703;28;19916;-75
2023/01/27 02:30:34;;;;;;;;;;;;;;;;;;5096246;28;20334;-74
2023/01/27 02:33:00;;;;;;;;;;;;;;;;;;5095030;28;19951;-75
2023/01/27 02:35:26;;;;;;;;;;;;;;;;;;5095916;28;19951;-75
2023/01/27 02:37:52;;;;;;;;;;;;;;;;;;5096138;28;19919;-76
2023/01/27 02:40:18;;;;;;;;;;;;;;;;;;5096005;28;20360;-75
2023/01/27 02:42:44;;;;;;;;;;;;;;;;;;5094152;28;19920;-76
2023/01/27 02:45:10;;;;;;;;;;;;;;;;;;5096243;28;19908;-76
2023/01/27 02:47:36;;;;;;;;;;;;;;;;;;5095958;28;19923;-75
2023/01/27 02:50:02;;;;;;;;;;;;;;;;;;5095808;28;20006;-76
2023/01/27 02:52:28;;;;;;;;;;;;;;;;;;5095684;28;19961;-75
2023/01/27 02:54:54;;;;;;;;;;;;;;;;;;5095613;28;19908;-76
2023/01/27 02:57:20;;;;;;;;;;;;;;;;;;5095338;28;20353;-76
2023/01/27 02:59:45;;;;;;;;;;;;;;;;;;5095707;28;19908;-77
2023/01/27 03:02:13;;;;;;;;;;;;;;;;;;5095688;28;19919;-76
2023/01/27 03:04:39;;;;;;;;;;;;;;;;;;5095428;28;19908;-75
2023/01/27 03:07:05;;;;;;;;;;;;;;;;;;5095110;28;19920;-76
2023/01/27 03:09:31;;;;;;;;;;;;;;;;;;5095358;28;19909;-75
2023/01/27 03:20:11;;;;;;;;;;;;;;;;;;5095307;28;19931;-76
2023/01/27 03:22:37;;;;;;;;;;;;;;;;;;5095220;28;20400;-75
2023/01/27 03:25:03;;;;;;;;;;;;;;;;;;5093667;28;20280;-76
2023/01/27 03:27:28;;;;;;;;;;;;;;;;;;5095009;28;20314;-75
2023/01/27 03:29:54;;;;;;;;;;;;;;;;;;5095040;28;19970;-76
2023/01/27 03:32:20;;;;;;;;;;;;;;;;;;5094663;28;19908;-76
2023/01/27 03:34:46;;;;;;;;;;;;;;;;;;5095198;28;19908;-76
2023/01/27 03:48:11;;;;;;;;;;;;;;;;;;5094592;28;19990;-75
2023/01/27 03:50:42;;;;;;;;;;;;;;;;;;5093217;28;19915;-75
2023/01/27 03:53:08;;;;;;;;;;;;;;;;;;5094179;28;20254;-76
2023/01/27 03:55:33;;;;;;;;;;;;;;;;;;5094534;28;19961;-75
2023/01/27 03:58:18;;;;;;;;;;;;;;;;;;5094509;28;20007;-76
2023/01/27 04:00:44;;;;;;;;;;;;;;;;;;5094105;28;19908;-76
2023/01/27 04:08:39;;;;;;;;;;;;;;;;;;5094618;28;20279;-76
2023/01/27 04:13:49;;;;;;;;;;;;;;;;;;5094025;28;20288;-76
2023/01/27 04:16:19;;;;;;;;;;;;;;;;;;5092596;28;19908;-75
2023/01/27 04:18:45;;;;;;;;;;;;;;;;;;5093602;28;20316;-75
2023/01/27 04:21:12;;;;;;;;;;;;;;;;;;5094298;28;19908;-76
2023/01/27 04:23:38;;;;;;;;;;;;;;;;;;5094631;28;19953;-76
2023/01/27 04:26:03;;;;;;;;;;;;;;;;;;5094429;28;19908;-75
2023/01/27 04:28:29;;;;;;;;;;;;;;;;;;5094372;28;20015;-75
2023/01/27 04:30:55;;;;;;;;;;;;;;;;;;5094142;28;19947;-75
2023/01/27 04:33:21;;;;;;;;;;;;;;;;;;5095636;28;19908;-76
2023/01/27 04:35:50;;;;;;;;;;;;;;;;;;5095361;28;20049;-76
2023/01/27 04:38:15;;;;;;;;;;;;;;;;;;5095457;28;19908;-76
2023/01/27 04:40:41;;;;;;;;;;;;;;;;;;5095691;28;19908;-75
2023/01/27 04:43:07;;;;;;;;;;;;;;;;;;5095160;28;19921;-76
2023/01/27 04:45:33;;;;;;;;;;;;;;;;;;5095741;28;19908;-75
2023/01/27 04:47:59;;;;;;;;;;;;;;;;;;5095394;28;20364;-75
2023/01/27 04:50:25;;;;;;;;;;;;;;;;;;5094649;28;19908;-75
2023/01/27 04:52:51;;;;;;;;;;;;;;;;;;5102326;28;20383;-74
2023/01/27 04:55:17;;;;;;;;;;;;;;;;;;5109174;28;19908;-75
2023/01/27 04:57:43;;;;;;;;;;;;;;;;;;5111869;28;19908;-74
2023/01/27 05:00:09;;;;;;;;;;;;;;;;;;5100877;28;20282;-76
2023/01/27 05:02:35;;;;;;;;;;;;;;;;;;5093663;28;20328;-75
2023/01/27 05:05:03;;;;;;;;;;;;;;;;;;5093781;28;20318;-75
2023/01/27 05:07:29;;;;;;;;;;;;;;;;;;5093585;28;19916;-75
2023/01/27 05:09:55;;;;;;;;;;;;;;;;;;5093479;28;20326;-75
2023/01/27 05:12:21;;;;;;;;;;;;;;;;;;5093689;28;20264;-75
2023/01/27 05:14:47;;;;;;;;;;;;;;;;;;5093640;28;20313;-75
2023/01/27 05:17:13;;;;;;;;;;;;;;;;;;5093154;28;20268;-75
2023/01/27 05:19:39;;;;;;;;;;;;;;;;;;5093525;28;20276;-75
2023/01/27 05:22:05;;;;;;;;;;;;;;;;;;5093655;28;19930;-75
2023/01/27 05:24:30;;;;;;;;;;;;;;;;;;5093233;28;19931;-75
2023/01/27 05:26:57;;;;;;;;;;;;;;;;;;5093400;28;19923;-75
2023/01/27 05:29:23;;;;;;;;;;;;;;;;;;5095872;28;19908;-75
2023/01/27 05:31:49;;;;;;;;;;;;;;;;;;5096810;28;19915;-75
2023/01/27 05:34:15;;;;;;;;;;;;;;;;;;5097130;28;19999;-75
2023/01/27 05:36:41;;;;;;;;;;;;;;;;;;5097197;28;20287;-75
2023/01/27 05:39:07;;;;;;;;;;;;;;;;;;5096605;28;20003;-75
2023/01/27 05:41:33;;;;;;;;;;;;;;;;;;5096965;28;20011;-75
2023/01/27 05:43:59;;;;;;;;;;;;;;;;;;5096845;28;20403;-75
2023/01/27 05:46:25;;;;;;;;;;;;;;;;;;5096570;28;19908;-75
2023/01/27 05:48:51;;;;;;;;;;;;;;;;;;5097127;28;19934;-75
2023/01/27 05:51:17;;;;;;;;;;;;;;;;;;5096661;28;19908;-75
2023/01/27 05:53:43;;;;;;;;;;;;;;;;;;5095008;28;19915;-75
2023/01/27 05:56:09;;;;;;;;;;;;;;;;;;5096745;28;19908;-75
2023/01/27 05:58:35;;;;;;;;;;;;;;;;;;5096314;28;20314;-75
2023/01/27 06:01:01;;;;;;;;;;;;;;;;;;5096586;28;19961;-75
2023/01/27 06:03:27;;;;;;;;;;;;;;;;;;5096596;28;19908;-75
2023/01/27 06:05:53;;;;;;;;;;;;;;;;;;5096061;28;19908;-75
2023/01/27 06:08:19;;;;;;;;;;;;;;;;;;5095301;28;19951;-75
2023/01/27 06:10:45;;;;;;;;;;;;;;;;;;5100661;28;19919;-75
2023/01/27 06:13:11;;;;;;;;;;;;;;;;;;5096257;28;19908;-75
2023/01/27 06:15:37;;;;;;;;;;;;;;;;;;5112019;28;19908;-75
2023/01/27 06:18:03;;;;;;;;;;;;;;;;;;5108947;28;20411;-75
2023/01/27 06:20:28;;;;;;;;;;;;;;;;;;5116075;28;20364;-74
2023/01/27 06:22:54;;;;;;;;;;;;;;;;;;5116156;28;20364;-76
2023/01/27 06:25:20;;;;;;;;;;;;;;;;;;5098793;28;20444;-81
2023/01/27 06:27:47;;;;;;;;;;;;;;;;;;5094726;28;19920;-72
2023/01/27 06:30:13;;;;;;;;;;;;;;;;;;5104063;28;19912;-76
2023/01/27 06:32:39;;;;;;;;;;;;;;;;;;5114302;28;19914;-75
2023/01/27 06:35:05;;;;;;;;;;;;;;;;;;5108001;28;19912;-74
2023/01/27 06:37:31;;;;;;;;;;;;;;;;;;5099146;28;19908;-76
2023/01/27 06:39:57;;;;;;;;;;;;;;;;;;5111288;28;20038;-80
2023/01/27 06:42:23;;;;;;;;;;;;;;;;;;5114680;28;19915;-74
2023/01/27 06:44:49;;;;;;;;;;;;;;;;;;5114458;28;19968;-75
2023/01/27 06:47:14;;;;;;;;;;;;;;;;;;5112812;28;19959;-73
2023/01/27 06:49:40;;;;;;;;;;;;;;;;;;5113649;28;19915;-74
2023/01/27 06:52:06;;;;;;;;;;;;;;;;;;5096822;28;19916;-73
2023/01/27 06:54:32;;;;;;;;;;;;;;;;;;5092753;28;19997;-76
2023/01/27 06:56:58;;;;;;;;;;;;;;;;;;5110132;28;19912;-75
2023/01/27 06:59:24;;;;;;;;;;;;;;;;;;5099764;28;19943;-72
2023/01/27 07:01:50;;;;;;;;;;;;;;;;;;5111258;28;19908;-71
2023/01/27 07:04:16;;;;;;;;;;;;;;;;;;5112550;28;19908;-73
2023/01/27 07:06:42;;;;;;;;;;;;;;;;;;5104306;28;19931;-69
2023/01/27 07:09:08;;;;;;;;;;;;;;;;;;5092419;28;20013;-72
2023/01/27 07:11:34;;;;;;;;;;;;;;;;;;5104711;28;19920;-75
2023/01/27 07:14:01;;;;;;;;;;;;;;;;;;5109463;28;19912;-75
2023/01/27 07:16:27;;;;;;;;;;;;;;;;;;5100771;28;19927;-72
2023/01/27 07:18:53;;;;;;;;;;;;;;;;;;5097759;28;19908;-77
2023/01/27 07:21:19;;;;;;;;;;;;;;;;;;5111743;28;19934;-71
2023/01/27 07:23:45;;;;;;;;;;;;;;;;;;5104330;28;19919;-75
2023/01/27 07:26:11;;;;;;;;;;;;;;;;;;5102063;28;19954;-74
2023/01/27 07:28:37;;;;;;;;;;;;;;;;;;5092024;28;19919;-80
2023/01/27 07:31:03;;;;;;;;;;;;;;;;;;5096777;28;19912;-77
2023/01/27 07:33:29;;;;;;;;;;;;;;;;;;5113118;28;19908;-86
2023/01/27 07:35:55;;;;;;;;;;;;;;;;;;5108074;28;19923;-76
2023/01/27 07:38:22;;;;;;;;;;;;;;;;;;5105391;28;20003;-72
2023/01/27 07:40:49;;;;;;;;;;;;;;;;;;5110160;28;20257;-80
2023/01/27 07:43:15;;;;;;;;;;;;;;;;;;5107476;28;19955;-75
2023/01/27 07:45:41;;;;;;;;;;;;;;;;;;5099986;28;19955;-76
2023/01/27 07:48:08;;;;;;;;;;;;;;;;;;5102682;28;19927;-72
2023/01/27 07:50:34;;;;;;;;;;;;;;;;;;5112301;28;19912;-71
2023/01/27 07:53:00;;;;;;;;;;;;;;;;;;5112529;28;20003;-82
2023/01/27 07:55:26;;;;;;;;;;;;;;;;;;5112883;28;19919;-75
2023/01/27 07:57:52;;;;;;;;;;;;;;;;;;5107599;28;19943;-75
2023/01/27 08:00:20;;;;;;;;;;;;;;;;;;5109990;28;19911;-74
2023/01/27 08:02:46;;;;;;;;;;;;;;;;;;5112684;28;19912;-77
2023/01/27 08:05:12;;;;;;;;;;;;;;;;;;5101838;28;19919;-73
2023/01/27 08:07:38;;;;;;;;;;;;;;;;;;5113540;28;19969;-74
2023/01/27 08:10:04;;;;;;;;;;;;;;;;;;5109279;28;20364;-75
2023/01/27 08:12:30;;;;;;;;;;;;;;;;;;5112872;28;19947;-72
2023/01/27 08:14:56;;;;;;;;;;;;;;;;;;5091825;28;19923;-74
2023/01/27 08:17:22;;;;;;;;;;;;;;;;;;5092405;28;19950;-74
2023/01/27 08:19:50;;;;;;;;;;;;;;;;;;5092689;28;19948;-74
2023/01/27 08:22:19;;;;;;;;;;;;;;;;;;5106042;28;19908;-73
2023/01/27 08:24:45;;;;;;;;;;;;;;;;;;5109035;28;19922;-76
2023/01/27 08:27:11;;;;;;;;;;;;;;;;;;5105435;28;19924;-72
2023/01/27 08:29:37;;;;;;;;;;;;;;;;;;5101177;28;19919;-72
2023/01/27 08:32:03;;;;;;;;;;;;;;;;;;5101817;28;19912;-71
2023/01/27 08:34:29;;;;;;;;;;;;;;;;;;5088306;28;20003;-73
2023/01/27 08:36:55;;;;;;;;;;;;;;;;;;5106097;28;19919;-72
2023/01/27 08:39:21;;;;;;;;;;;;;;;;;;5093729;28;19912;-74
2023/01/27 08:41:47;;;;;;;;;;;;;;;;;;5103812;28;20011;-72
2023/01/27 08:44:13;;;;;;;;;;;;;;;;;;5108603;28;19919;-69
2023/01/27 08:46:39;;;;;;;;;;;;;;;;;;5111595;28;19915;-71
2023/01/27 08:49:05;;;;;;;;;;;;;;;;;;5112411;28;20010;-74
2023/01/27 08:51:31;;;;;;;;;;;;;;;;;;5104757;28;19912;-71
2023/01/27 08:53:56;;;;;;;;;;;;;;;;;;5101301;28;19923;-73
2023/01/27 08:56:22;;;;;;;;;;;;;;;;;;5092641;28;19908;-75
2023/01/27 08:58:51;;;;;;;;;;;;;;;;;;5101895;28;20399;-69
2023/01/27 09:01:16;;;;;;;;;;;;;;;;;;5103076;28;19911;-68
2023/01/27 09:03:42;;;;;;;;;;;;;;;;;;5106217;28;19919;-69
2023/01/27 09:06:08;;;;;;;;;;;;;;;;;;5108932;28;19968;-72
2023/01/27 09:08:34;;;;;;;;;;;;;;;;;;5114047;28;19927;-71
2023/01/27 09:11:00;;;;;;;;;;;;;;;;;;5112222;28;19912;-72
2023/01/27 09:13:27;;;;;;;;;;;;;;;;;;5112947;28;19998;-73
2023/01/27 09:15:53;;;;;;;;;;;;;;;;;;5114393;28;19919;-74
2023/01/27 09:18:19;;;;;;;;;;;;;;;;;;5115371;28;19912;-74
2023/01/27 09:20:45;;;;;;;;;;;;;;;;;;5116054;28;19912;-74
2023/01/27 09:23:11;;;;;;;;;;;;;;;;;;5116174;28;19912;-74
2023/01/27 09:25:37;;;;;;;;;;;;;;;;;;5115925;28;19908;-75
2023/01/27 09:28:03;;;;;;;;;;;;;;;;;;5114370;28;19916;-74
2023/01/27 09:30:29;;;;;;;;;;;;;;;;;;5109754;28;19912;-81
2023/01/27 09:32:55;;;;;;;;;;;;;;;;;;5111348;28;20379;-72
2023/01/27 09:35:21;;;;;;;;;;;;;;;;;;5110635;28;19912;-71
2023/01/27 09:37:47;;;;;;;;;;;;;;;;;;5111228;28;19915;-71
2023/01/27 09:40:13;;;;;;;;;;;;;;;;;;5108533;28;19918;-76
2023/01/27 09:42:39;;;;;;;;;;;;;;;;;;5096080;28;19924;-76
2023/01/27 09:45:05;;;;;;;;;;;;;;;;;;5106829;28;19977;-76
2023/01/27 09:47:31;;;;;;;;;;;;;;;;;;5108437;28;19977;-76
2023/01/27 09:49:57;;;;;;;;;;;;;;;;;;5110496;28;19916;-83
2023/01/27 09:52:23;;;;;;;;;;;;;;;;;;5111562;28;19908;-81
2023/01/27 09:54:50;;;;;;;;;;;;;;;;;;5111840;28;19908;-82
2023/01/27 09:57:16;;;;;;;;;;;;;;;;;;5108232;28;19912;-80
2023/01/27 09:59:42;;;;;;;;;;;;;;;;;;5104298;28;20347;-73
2023/01/27 10:02:08;;;;;;;;;;;;;;;;;;5110800;28;19960;-79
2023/01/27 10:04:34;;;;;;;;;;;;;;;;;;5110788;28;20002;-78
2023/01/27 10:07:01;;;;;;;;;;;;;;;;;;5110404;28;19926;-79
2023/01/27 10:09:33;;;;;;;;;;;;;;;;;;5111051;28;19908;-79
2023/01/27 10:11:59;;;;;;;;;;;;;;;;;;5102373;28;19912;-76
2023/01/27 10:14:25;;;;;;;;;;;;;;;;;;5106018;28;19930;-78
2023/01/27 10:16:52;;;;;;;;;;;;;;;;;;5105766;28;19916;-77
2023/01/27 10:19:18;;;;;;;;;;;;;;;;;;5103110;28;20395;-74
2023/01/27 10:21:44;;;;;;;;;;;;;;;;;;5105615;28;19916;-77
2023/01/27 10:24:10;;;;;;;;;;;;;;;;;;5104614;28;19912;-73
2023/01/27 10:26:36;;;;;;;;;;;;;;;;;;5093994;28;19916;-74
2023/01/27 10:29:02;;;;;;;;;;;;;;;;;;5111513;28;19924;-73
2023/01/27 10:31:28;;;;;;;;;;;;;;;;;;5111517;28;19915;-71
2023/01/27 10:33:54;;;;;;;;;;;;;;;;;;5107284;28;19912;-74
2023/01/27 10:36:20;;;;;;;;;;;;;;;;;;5100862;28;19919;-72
2023/01/27 10:38:46;;;;;;;;;;;;;;;;;;5101753;28;19916;-73
2023/01/27 10:41:12;;;;;;;;;;;;;;;;;;5099839;28;19920;-72
2023/01/27 10:43:38;;;;;;;;;;;;;;;;;;5112312;28;20375;-77
2023/01/27 10:46:04;;;;;;;;;;;;;;;;;;5094286;28;19969;-72
2023/01/27 10:48:30;;;;;;;;;;;;;;;;;;5097004;28;19916;-72
2023/01/27 10:50:56;;;;;;;;;;;;;;;;;;5093471;28;20361;-73
2023/01/27 10:53:21;;;;;;;;;;;;;;;;;;5093169;28;19912;-73
2023/01/27 10:55:47;;;;;;;;;;;;;;;;;;5107575;28;20403;-75
2023/01/27 10:58:13;;;;;;;;;;;;;;;;;;5098737;28;19920;-73
2023/01/27 11:00:40;;;;;;;;;;;;;;;;;;5105923;28;20015;-76
2023/01/27 11:03:06;;;;;;;;;;;;;;;;;;5110232;27;19969;-75
2023/01/27 11:05:32;;;;;;;;;;;;;;;;;;5110007;28;19963;-75
2023/01/27 11:07:57;;;;;;;;;;;;;;;;;;5112222;28;19924;-75
2023/01/27 11:10:23;;;;;;;;;;;;;;;;;;5109405;28;19928;-75
2023/01/27 11:12:49;;;;;;;;;;;;;;;;;;5110820;28;20316;-76
2023/01/27 11:15:15;;;;;;;;;;;;;;;;;;5111689;28;19908;-74
2023/01/27 11:17:41;;;;;;;;;;;;;;;;;;5110239;28;19907;-74
2023/01/27 11:20:10;;;;;;;;;;;;;;;;;;5110768;28;20377;-75
2023/01/27 11:22:36;;;;;;;;;;;;;;;;;;5112316;28;20228;-75
2023/01/27 11:25:01;;;;;;;;;;;;;;;;;;5113407;28;19912;-75
2023/01/27 11:27:27;;;;;;;;;;;;;;;;;;5112990;28;19969;-75
2023/01/27 11:29:53;;;;;;;;;;;;;;;;;;5112278;28;19908;-75
2023/01/27 11:32:19;;;;;;;;;;;;;;;;;;5113297;28;19908;-74
2023/01/27 11:34:45;;;;;;;;;;;;;;;;;;5114388;28;20325;-75
2023/01/27 11:37:12;;;;;;;;;;;;;;;;;;5112354;28;20325;-75
2023/01/27 11:39:38;;;;;;;;;;;;;;;;;;5113593;28;19914;-75
2023/01/27 11:42:04;;;;;;;;;;;;;;;;;;5114433;28;19907;-75
2023/01/27 11:44:30;;;;;;;;;;;;;;;;;;5113817;28;19920;-75
2023/01/27 11:46:55;;;;;;;;;;;;;;;;;;5114205;28;19923;-75
2023/01/27 11:49:21;;;;;;;;;;;;;;;;;;5113760;28;19912;-75
2023/01/27 11:51:48;;;;;;;;;;;;;;;;;;5112505;28;19908;-75
2023/01/27 11:54:14;;;;;;;;;;;;;;;;;;5114102;28;19919;-75
2023/01/27 11:56:40;;;;;;;;;;;;;;;;;;5113762;28;19908;-75
2023/01/27 11:59:06;;;;;;;;;;;;;;;;;;5111853;28;19919;-75
2023/01/27 12:01:32;;;;;;;;;;;;;;;;;;5112208;28;19911;-74
2023/01/27 12:03:58;;;;;;;;;;;;;;;;;;5113009;28;19998;-75
2023/01/27 12:06:24;;;;;;;;;;;;;;;;;;5110681;28;19951;-74
2023/01/27 12:08:50;;;;;;;;;;;;;;;;;;5113183;28;20410;-75
2023/01/27 12:11:16;;;;;;;;;;;;;;;;;;5112179;28;19916;-74
2023/01/27 12:13:42;;;;;;;;;;;;;;;;;;5113167;28;20375;-75
2023/01/27 12:16:08;;;;;;;;;;;;;;;;;;5113927;28;19960;-75
2023/01/27 12:18:33;;;;;;;;;;;;;;;;;;5113586;28;19912;-74
2023/01/27 12:20:59;;;;;;;;;;;;;;;;;;5113784;28;19912;-74
2023/01/27 12:23:25;;;;;;;;;;;;;;;;;;5112337;28;19908;-74
2023/01/27 12:25:52;;;;;;;;;;;;;;;;;;5113204;28;20105;-75
2023/01/27 12:28:18;;;;;;;;;;;;;;;;;;5113085;28;19962;-75
2023/01/27 12:30:43;;;;;;;;;;;;;;;;;;5113931;28;19965;-75
2023/01/27 12:33:09;;;;;;;;;;;;;;;;;;5112534;28;19908;-76
2023/01/27 12:35:35;;;;;;;;;;;;;;;;;;5112402;28;19908;-76
2023/01/27 12:38:01;;;;;;;;;;;;;;;;;;5112232;28;20279;-76
2023/01/27 12:40:28;;;;;;;;;;;;;;;;;;5116703;28;19907;-75
2023/01/27 12:42:53;;;;;;;;;;;;;;;;;;5117857;28;19919;-74
2023/01/27 12:45:19;;;;;;;;;;;;;;;;;;5117857;28;19915;-74
2023/01/27 12:47:45;;;;;;;;;;;;;;;;;;5117610;28;20002;-75
2023/01/27 12:50:11;;;;;;;;;;;;;;;;;;5117644;28;19908;-75
2023/01/27 12:52:37;;;;;;;;;;;;;;;;;;5114866;28;19995;-75
2023/01/27 12:55:03;;;;;;;;;;;;;;;;;;5113967;28;19908;-75
2023/01/27 12:57:29;;;;;;;;;;;;;;;;;;5116166;28;19908;-75
2023/01/27 12:59:55;;;;;;;;;;;;;;;;;;5115880;28;19912;-75
2023/01/27 13:02:21;;;;;;;;;;;;;;;;;;5112548;28;20403;-75
2023/01/27 13:04:47;;;;;;;;;;;;;;;;;;5114047;28;20302;-75
2023/01/27 13:07:13;;;;;;;;;;;;;;;;;;5093972;28;19934;-74
2023/01/27 13:09:39;;;;;;;;;;;;;;;;;;5111278;28;19956;-73
2023/01/27 13:12:05;;;;;;;;;;;;;;;;;;5106718;28;19912;-75
2023/01/27 13:14:31;;;;;;;;;;;;;;;;;;5095442;28;19919;-72
2023/01/27 13:16:57;;;;;;;;;;;;;;;;;;5109232;28;19920;-75
2023/01/27 13:19:23;;;;;;;;;;;;;;;;;;5103014;28;19912;-71
2023/01/27 13:21:49;;;;;;;;;;;;;;;;;;5106927;28;20418;-73
2023/01/27 13:24:18;;;;;;;;;;;;;;;;;;5102076;28;19912;-73
2023/01/27 13:26:44;;;;;;;;;;;;;;;;;;5112113;28;19962;-72
2023/01/27 13:29:10;;;;;;;;;;;;;;;;;;5111300;28;20380;-74
2023/01/27 13:31:36;;;;;;;;;;;;;;;;;;5101504;28;20014;-75
2023/01/27 13:34:02;;;;;;;;;;;;;;;;;;5103906;28;20339;-74
2023/01/27 13:36:28;;;;;;;;;;;;;;;;;;5096258;28;19909;-75
2023/01/27 13:38:54;;;;;;;;;;;;;;;;;;5116182;28;19912;-75
2023/01/27 13:41:20;;;;;;;;;;;;;;;;;;5114291;28;19911;-76
2023/01/27 13:43:46;;;;;;;;;;;;;;;;;;5114704;28;19919;-75
2023/01/27 13:46:12;;;;;;;;;;;;;;;;;;5115533;28;19923;-78
2023/01/27 13:48:38;;;;;;;;;;;;;;;;;;5115436;28;19916;-74
2023/01/27 13:51:04;;;;;;;;;;;;;;;;;;5113923;28;19907;-75
2023/01/27 13:53:30;;;;;;;;;;;;;;;;;;5110078;28;19916;-75
2023/01/27 13:55:56;;;;;;;;;;;;;;;;;;5112953;28;20382;-75
2023/01/27 13:58:22;;;;;;;;;;;;;;;;;;5111166;28;19918;-76
2023/01/27 14:00:53;;;;;;;;;;;;;;;;;;5105370;28;19946;-75
2023/01/27 14:03:26;;;;;;;;;;;;;;;;;;5114618;27;19914;-73
2023/01/27 14:05:53;;;;;;;;;;;;;;;;;;5113832;28;20276;-74
2023/01/27 14:08:19;;;;;;;;;;;;;;;;;;5113032;28;19916;-73
2023/01/27 14:10:46;;;;;;;;;;;;;;;;;;5113987;28;19930;-74
2023/01/27 14:13:12;;;;;;;;;;;;;;;;;;5114376;27;20011;-75
2023/01/27 14:15:38;;;;;;;;;;;;;;;;;;5112448;28;20010;-75
2023/01/27 14:18:04;;;;;;;;;;;;;;;;;;5113470;28;19908;-74
2023/01/27 14:20:30;;;;;;;;;;;;;;;;;;5113945;28;19914;-74
2023/01/27 14:22:56;;;;;;;;;;;;;;;;;;5114465;28;20329;-75
2023/01/27 14:25:22;;;;;;;;;;;;;;;;;;5113606;28;20380;-74
2023/01/27 14:27:48;;;;;;;;;;;;;;;;;;5112745;28;20103;-75
2023/01/27 14:30:14;;;;;;;;;;;;;;;;;;5113099;28;20269;-74
2023/01/27 14:32:40;;;;;;;;;;;;;;;;;;5112695;28;20011;-74
2023/01/27 14:35:08;;;;;;;;;;;;;;;;;;5114225;28;19912;-74
2023/01/27 14:37:34;;;;;;;;;;;;;;;;;;5114785;28;19915;-75
2023/01/27 14:40:00;;;;;;;;;;;;;;;;;;5114496;28;19907;-75
2023/01/27 14:42:26;;;;;;;;;;;;;;;;;;5115878;28;19908;-74
2023/01/27 14:44:52;;;;;;;;;;;;;;;;;;5114988;28;19911;-75
2023/01/27 14:47:18;;;;;;;;;;;;;;;;;;5115614;28;19923;-74
2023/01/27 14:49:44;;;;;;;;;;;;;;;;;;5115251;28;19951;-74
2023/01/27 14:52:10;;;;;;;;;;;;;;;;;;5115958;28;19915;-74
2023/01/27 14:54:36;;;;;;;;;;;;;;;;;;5115752;28;19915;-74
2023/01/27 14:57:01;;;;;;;;;;;;;;;;;;5116454;28;19971;-75
2023/01/27 14:59:27;;;;;;;;;;;;;;;;;;5115799;28;19908;-75
2023/01/27 15:01:53;;;;;;;;;;;;;;;;;;5114560;28;19908;-75
2023/01/27 15:04:19;;;;;;;;;;;;;;;;;;5115760;28;20423;-74
2023/01/27 15:06:48;;;;;;;;;;;;;;;;;;5115627;28;20409;-74
2023/01/27 15:09:14;;;;;;;;;;;;;;;;;;5113942;28;20299;-74
2023/01/27 15:11:40;;;;;;;;;;;;;;;;;;5115803;28;19930;-74
2023/01/27 15:14:06;;;;;;;;;;;;;;;;;;5115502;28;19921;-74
2023/01/27 15:16:32;;;;;;;;;;;;;;;;;;5113782;28;20394;-74
2023/01/27 15:18:58;;;;;;;;;;;;;;;;;;5114191;28;20245;-75
2023/01/27 15:21:24;;;;;;;;;;;;;;;;;;5115009;28;19908;-76
2023/01/27 15:23:49;;;;;;;;;;;;;;;;;;5115535;28;19915;-74
2023/01/27 15:26:15;;;;;;;;;;;;;;;;;;5115380;28;19944;-74
2023/01/27 15:28:41;;;;;;;;;;;;;;;;;;5114924;28;20030;-75
2023/01/27 15:31:08;;;;;;;;;;;;;;;;;;5115452;28;19908;-75
2023/01/27 15:33:34;;;;;;;;;;;;;;;;;;5115287;28;19915;-75
2023/01/27 15:36:00;;;;;;;;;;;;;;;;;;5114904;28;20305;-76
2023/01/27 15:38:26;;;;;;;;;;;;;;;;;;5115142;28;20322;-75
2023/01/27 15:40:52;;;;;;;;;;;;;;;;;;5114065;28;19916;-75
2023/01/27 15:43:18;;;;;;;;;;;;;;;;;;5114383;28;19942;-75
2023/01/27 15:45:44;;;;;;;;;;;;;;;;;;5115057;28;19912;-75
2023/01/27 15:48:12;;;;;;;;;;;;;;;;;;5114402;28;20388;-75
2023/01/27 15:50:38;;;;;;;;;;;;;;;;;;5114506;28;19939;-74
2023/01/27 15:53:04;;;;;;;;;;;;;;;;;;5114924;28;19912;-75
2023/01/27 15:55:30;;;;;;;;;;;;;;;;;;5113732;28;19951;-75
2023/01/27 15:57:56;;;;;;;;;;;;;;;;;;5114984;28;20379;-76
2023/01/27 16:00:22;;;;;;;;;;;;;;;;;;5115460;28;19915;-75
2023/01/27 16:02:48;;;;;;;;;;;;;;;;;;5115500;28;20015;-75
2023/01/27 16:05:13;;;;;;;;;;;;;;;;;;5114971;28;19970;-74
2023/01/27 16:07:39;;;;;;;;;;;;;;;;;;5115203;28;19920;-75
2023/01/27 16:10:05;;;;;;;;;;;;;;;;;;5115082;28;19968;-75
2023/01/27 16:12:31;;;;;;;;;;;;;;;;;;5114744;28;19931;-75
2023/01/27 16:14:57;;;;;;;;;;;;;;;;;;5115311;28;19908;-75
2023/01/27 16:17:24;;;;;;;;;;;;;;;;;;5115563;28;20378;-75
2023/01/27 16:19:50;;;;;;;;;;;;;;;;;;5115595;28;19908;-74
2023/01/27 16:22:17;;;;;;;;;;;;;;;;;;5116283;28;19915;-74
2023/01/27 16:24:43;;;;;;;;;;;;;;;;;;5113839;28;19915;-75
2023/01/27 16:27:09;;;;;;;;;;;;;;;;;;5115690;28;19912;-75
2023/01/27 16:29:35;;;;;;;;;;;;;;;;;;5116135;28;20002;-75
2023/01/27 16:32:01;;;;;;;;;;;;;;;;;;5115372;28;20375;-76
2023/01/27 16:34:27;;;;;;;;;;;;;;;;;;5122875;28;19908;-74
2023/01/27 16:36:53;;;;;;;;;;;;;;;;;;5132516;28;19908;-74
2023/01/27 16:39:21;;;;;;;;;;;;;;;;;;5132055;28;19908;-74
2023/01/27 16:41:47;;;;;;;;;;;;;;;;;;5123568;28;20006;-77
2023/01/27 16:44:13;;;;;;;;;;;;;;;;;;5112754;28;19920;-75
2023/01/27 16:46:39;;;;;;;;;;;;;;;;;;5113732;28;19911;-74
2023/01/27 16:49:05;;;;;;;;;;;;;;;;;;5114119;28;19912;-74
2023/01/27 16:51:31;;;;;;;;;;;;;;;;;;5114103;28;20364;-74
2023/01/27 16:53:57;;;;;;;;;;;;;;;;;;5113705;28;20372;-74
2023/01/27 16:56:23;;;;;;;;;;;;;;;;;;5114137;28;19915;-75
2023/01/27 16:58:49;;;;;;;;;;;;;;;;;;5114019;28;19915;-75
2023/01/27 17:01:15;;;;;;;;;;;;;;;;;;5113601;28;19908;-75
2023/01/27 17:03:41;;;;;;;;;;;;;;;;;;5113928;28;19908;-75
2023/01/27 17:06:07;;;;;;;;;;;;;;;;;;5113955;28;19915;-75
2023/01/27 17:08:38;;;;;;;;;;;;;;;;;;5112778;28;19915;-74
2023/01/27 17:11:04;;;;;;;;;;;;;;;;;;5114135;28;19907;-74
2023/01/27 17:13:30;;;;;;;;;;;;;;;;;;5112582;28;20386;-74